createdAt,value
2018-12-06T00:00:33.920Z,6.58
2018-12-06T00:01:08.513Z,6.60
2018-12-06T00:01:43.638Z,6.61
2018-12-06T00:02:18.333Z,6.60
2018-12-06T00:02:53.234Z,6.58
2018-12-06T00:03:28.488Z,6.57
2018-12-06T00:04:03.669Z,6.58
2018-12-06T00:04:38.274Z,6.60
2018-12-06T00:05:12.921Z,6.60
2018-12-06T00:05:47.525Z,6.63
2018-12-06T00:06:22.234Z,6.64
2018-12-06T00:06:56.944Z,6.66
2018-12-06T00:07:31.674Z,6.62
2018-12-06T00:08:19.684Z,6.62
2018-12-06T00:08:54.574Z,6.55
2018-12-06T00:09:29.323Z,6.60
2018-12-06T00:10:04.719Z,6.57
2018-12-06T00:10:39.417Z,6.60
2018-12-06T00:11:14.051Z,6.60
2018-12-06T00:11:48.718Z,6.59
2018-12-06T00:12:24.184Z,6.60
2018-12-06T00:12:58.933Z,6.60
2018-12-06T00:13:33.632Z,6.59
2018-12-06T00:14:08.728Z,6.58
2018-12-06T00:14:43.313Z,6.58
2018-12-06T00:15:27.602Z,6.61
2018-12-06T00:16:02.724Z,6.63
2018-12-06T00:16:37.429Z,6.82
2018-12-06T00:17:12.030Z,6.80
2018-12-06T00:17:46.622Z,6.73
2018-12-06T00:18:21.319Z,6.73
2018-12-06T00:19:07.821Z,6.68
2018-12-06T00:19:42.474Z,6.65
2018-12-06T00:20:17.086Z,6.63
2018-12-06T00:20:51.785Z,6.62
2018-12-06T00:21:26.385Z,6.61
2018-12-06T00:22:00.996Z,6.61
2018-12-06T00:22:35.641Z,6.61
2018-12-06T00:23:10.317Z,6.62
2018-12-06T00:23:44.934Z,6.63
2018-12-06T00:24:19.531Z,6.65
2018-12-06T00:24:54.312Z,6.78
2018-12-06T00:25:28.980Z,6.76
2018-12-06T00:26:03.572Z,6.71
2018-12-06T00:26:38.266Z,6.68
2018-12-06T00:27:13.182Z,6.65
2018-12-06T00:27:47.778Z,6.62
2018-12-06T00:28:22.593Z,6.58
2018-12-06T00:28:57.350Z,6.56
2018-12-06T00:29:31.980Z,6.56
2018-12-06T00:30:17.737Z,6.54
2018-12-06T00:30:52.473Z,6.56
2018-12-06T00:31:27.301Z,6.52
2018-12-06T00:32:01.947Z,6.52
2018-12-06T00:32:36.573Z,6.54
2018-12-06T00:33:11.639Z,6.55
2018-12-06T00:33:46.332Z,6.52
2018-12-06T00:34:20.917Z,6.52
2018-12-06T00:34:55.590Z,6.53
2018-12-06T00:35:30.329Z,6.52
2018-12-06T00:36:05.563Z,6.51
2018-12-06T00:36:40.154Z,6.50
2018-12-06T00:37:14.726Z,6.48
2018-12-06T00:37:49.327Z,6.48
2018-12-06T00:38:24.026Z,6.48
2018-12-06T00:38:59.052Z,6.58
2018-12-06T00:39:33.632Z,6.58
2018-12-06T00:40:08.692Z,6.56
2018-12-06T00:40:43.268Z,6.54
2018-12-06T00:41:17.899Z,6.52
2018-12-06T00:41:52.740Z,6.55
2018-12-06T00:42:27.570Z,6.52
2018-12-06T00:43:02.296Z,6.50
2018-12-06T00:43:36.933Z,6.49
2018-12-06T00:44:11.504Z,6.51
2018-12-06T00:44:46.086Z,6.49
2018-12-06T00:45:21.730Z,6.64
2018-12-06T00:45:56.815Z,6.69
2018-12-06T00:46:31.418Z,6.68
2018-12-06T00:47:06.042Z,6.73
2018-12-06T00:47:40.637Z,6.78
2018-12-06T00:48:15.265Z,6.76
2018-12-06T00:48:49.861Z,6.74
2018-12-06T00:49:24.522Z,6.80
2018-12-06T00:49:59.172Z,6.74
2018-12-06T00:50:33.761Z,6.73
2018-12-06T00:51:08.330Z,6.74
2018-12-06T00:51:42.909Z,6.73
2018-12-06T00:52:17.563Z,6.65
2018-12-06T00:52:52.146Z,6.61
2018-12-06T00:53:26.812Z,6.68
2018-12-06T00:54:01.429Z,6.65
2018-12-06T00:54:36.004Z,6.75
2018-12-06T00:55:11.045Z,6.64
2018-12-06T00:55:45.629Z,6.74
2018-12-06T00:56:20.293Z,6.73
2018-12-06T00:56:54.922Z,6.56
2018-12-06T00:57:29.710Z,6.52
2018-12-06T00:58:04.325Z,6.54
2018-12-06T00:58:38.952Z,6.51
2018-12-06T00:59:13.564Z,6.50
2018-12-06T00:59:48.191Z,6.46
2018-12-06T01:00:23.059Z,6.46
2018-12-06T01:00:58.218Z,6.38
2018-12-06T01:01:32.888Z,6.41
2018-12-06T01:02:09.235Z,6.37
2018-12-06T01:02:43.912Z,6.36
2018-12-06T01:03:18.631Z,6.35
2018-12-06T01:03:54.049Z,6.34
2018-12-06T01:04:28.724Z,6.34
2018-12-06T01:05:03.938Z,6.30
2018-12-06T01:05:38.532Z,6.29
2018-12-06T01:06:13.606Z,6.27
2018-12-06T01:06:48.222Z,6.33
2018-12-06T01:07:23.124Z,6.46
2018-12-06T01:07:57.780Z,6.49
2018-12-06T01:08:32.505Z,6.51
2018-12-06T01:09:08.122Z,6.48
2018-12-06T01:09:42.745Z,6.43
2018-12-06T01:10:17.343Z,6.48
2018-12-06T01:10:52.086Z,6.49
2018-12-06T01:11:27.131Z,6.53
2018-12-06T01:12:01.755Z,6.53
2018-12-06T01:12:36.745Z,6.51
2018-12-06T01:13:11.459Z,6.51
2018-12-06T01:13:46.959Z,6.47
2018-12-06T01:14:23.680Z,6.59
2018-12-06T01:14:58.647Z,6.53
2018-12-06T01:15:33.304Z,6.54
2018-12-06T01:16:07.921Z,6.47
2018-12-06T01:16:42.523Z,6.43
2018-12-06T01:17:17.124Z,6.40
2018-12-06T01:17:51.747Z,6.47
2018-12-06T01:18:26.522Z,6.49
2018-12-06T01:19:01.300Z,6.50
2018-12-06T01:19:36.917Z,6.45
2018-12-06T01:20:11.569Z,6.41
2018-12-06T01:20:46.260Z,6.37
2018-12-06T01:21:20.897Z,6.47
2018-12-06T01:21:55.589Z,6.53
2018-12-06T01:22:30.785Z,6.58
2018-12-06T01:23:05.441Z,6.49
2018-12-06T01:23:40.048Z,6.49
2018-12-06T01:24:14.673Z,6.53
2018-12-06T01:24:49.285Z,6.53
2018-12-06T01:25:24.050Z,6.50
2018-12-06T01:25:58.737Z,6.46
2018-12-06T01:26:33.382Z,6.48
2018-12-06T01:27:08.018Z,6.43
2018-12-06T01:27:42.641Z,6.42
2018-12-06T01:28:17.288Z,6.43
2018-12-06T01:28:52.012Z,6.50
2018-12-06T01:29:26.739Z,6.54
2018-12-06T01:30:01.401Z,6.52
2018-12-06T01:30:36.538Z,6.53
2018-12-06T01:31:11.188Z,6.53
2018-12-06T01:31:46.002Z,6.53
2018-12-06T01:32:20.715Z,6.51
2018-12-06T01:32:55.451Z,6.47
2018-12-06T01:33:30.173Z,6.46
2018-12-06T01:34:04.887Z,6.54
2018-12-06T01:34:40.340Z,6.59
2018-12-06T01:35:15.018Z,6.58
2018-12-06T01:35:49.626Z,6.61
2018-12-06T01:36:24.430Z,6.65
2018-12-06T01:36:59.197Z,6.62
2018-12-06T01:37:33.873Z,6.57
2018-12-06T01:38:08.683Z,6.61
2018-12-06T01:38:43.502Z,6.70
2018-12-06T01:39:18.151Z,6.67
2018-12-06T01:39:53.017Z,6.64
2018-12-06T01:40:27.829Z,6.66
2018-12-06T01:41:02.439Z,6.66
2018-12-06T01:41:37.046Z,6.64
2018-12-06T01:42:11.645Z,6.60
2018-12-06T01:42:46.237Z,6.63
2018-12-06T01:43:20.954Z,6.60
2018-12-06T01:43:55.789Z,6.64
2018-12-06T01:44:30.482Z,6.61
2018-12-06T01:45:06.602Z,6.63
2018-12-06T01:45:41.239Z,6.67
2018-12-06T01:46:15.864Z,6.73
2018-12-06T01:46:50.501Z,6.78
2018-12-06T01:47:25.298Z,6.77
2018-12-06T01:48:00.154Z,6.77
2018-12-06T01:48:35.125Z,6.77
2018-12-06T01:49:09.863Z,6.75
2018-12-06T01:49:44.498Z,6.85
2018-12-06T01:50:19.208Z,6.86
2018-12-06T01:50:54.565Z,6.80
2018-12-06T01:51:29.459Z,6.78
2018-12-06T01:52:04.573Z,6.86
2018-12-06T01:52:39.294Z,6.89
2018-12-06T01:53:14.058Z,6.87
2018-12-06T01:53:49.440Z,6.88
2018-12-06T01:54:24.235Z,6.87
2018-12-06T01:54:59.192Z,6.81
2018-12-06T01:55:33.792Z,6.75
2018-12-06T01:56:08.411Z,6.67
2018-12-06T01:56:43.038Z,6.65
2018-12-06T01:57:17.641Z,6.60
2018-12-06T01:57:52.565Z,6.52
2018-12-06T01:58:27.546Z,6.46
2018-12-06T01:59:02.201Z,6.44
2018-12-06T01:59:37.318Z,6.51
2018-12-06T02:00:13.474Z,6.49
2018-12-06T02:00:48.073Z,6.51
2018-12-06T02:01:22.820Z,6.53
2018-12-06T02:01:57.533Z,6.51
2018-12-06T02:02:32.173Z,6.58
2018-12-06T02:03:06.766Z,6.60
2018-12-06T02:03:41.385Z,6.61
2018-12-06T02:04:16.066Z,6.59
2018-12-06T02:04:50.894Z,6.61
2018-12-06T02:05:25.497Z,6.58
2018-12-06T02:06:00.188Z,6.65
2018-12-06T02:06:34.839Z,6.63
2018-12-06T02:07:09.448Z,6.65
2018-12-06T02:07:44.061Z,6.68
2018-12-06T02:08:18.878Z,6.68
2018-12-06T02:08:53.673Z,6.64
2018-12-06T02:09:28.377Z,6.64
2018-12-06T02:10:04.521Z,6.66
2018-12-06T02:10:39.180Z,6.65
2018-12-06T02:11:13.820Z,6.60
2018-12-06T02:11:48.384Z,6.62
2018-12-06T02:12:23.085Z,6.62
2018-12-06T02:12:57.778Z,6.61
2018-12-06T02:13:32.867Z,6.61
2018-12-06T02:14:08.556Z,6.67
2018-12-06T02:14:43.252Z,6.78
2018-12-06T02:15:17.923Z,6.74
2018-12-06T02:15:52.536Z,6.79
2018-12-06T02:16:27.283Z,6.78
2018-12-06T02:17:01.902Z,6.70
2018-12-06T02:17:36.564Z,6.67
2018-12-06T02:18:11.096Z,6.64
2018-12-06T02:18:45.707Z,6.67
2018-12-06T02:19:20.822Z,6.67
2018-12-06T02:19:55.648Z,6.74
2018-12-06T02:20:30.509Z,6.66
2018-12-06T02:21:05.571Z,6.67
2018-12-06T02:21:40.195Z,6.63
2018-12-06T02:22:14.740Z,6.56
2018-12-06T02:22:49.316Z,6.61
2018-12-06T02:23:24.089Z,6.59
2018-12-06T02:24:05.309Z,6.64
2018-12-06T02:24:39.877Z,6.72
2018-12-06T02:25:14.829Z,6.72
2018-12-06T02:25:49.408Z,6.73
2018-12-06T02:26:24.097Z,6.77
2018-12-06T02:26:58.706Z,6.79
2018-12-06T02:27:33.345Z,6.76
2018-12-06T02:28:07.913Z,6.70
2018-12-06T02:28:42.497Z,6.57
2018-12-06T02:29:17.098Z,6.47
2018-12-06T02:29:54.951Z,6.45
2018-12-06T02:30:30.170Z,6.49
2018-12-06T02:31:05.240Z,6.46
2018-12-06T02:31:39.846Z,6.52
2018-12-06T02:32:14.452Z,6.52
2018-12-06T02:32:49.076Z,6.48
2018-12-06T02:33:24.249Z,6.54
2018-12-06T02:33:58.968Z,6.60
2018-12-06T02:34:33.560Z,6.54
2018-12-06T02:35:08.665Z,6.50
2018-12-06T02:35:43.239Z,6.46
2018-12-06T02:36:17.808Z,6.60
2018-12-06T02:36:52.619Z,6.53
2018-12-06T02:37:27.340Z,6.44
2018-12-06T02:38:01.929Z,6.44
2018-12-06T02:38:36.516Z,6.47
2018-12-06T02:39:11.108Z,6.44
2018-12-06T02:39:45.779Z,6.43
2018-12-06T02:40:21.071Z,6.44
2018-12-06T02:40:55.855Z,6.50
2018-12-06T02:41:30.433Z,6.48
2018-12-06T02:42:05.044Z,6.47
2018-12-06T02:42:39.671Z,6.38
2018-12-06T02:43:14.268Z,6.31
2018-12-06T02:43:48.913Z,6.29
2018-12-06T02:44:23.898Z,6.31
2018-12-06T02:44:58.584Z,6.38
2018-12-06T02:45:33.349Z,6.44
2018-12-06T02:46:08.030Z,6.38
2018-12-06T02:46:42.618Z,6.55
2018-12-06T02:47:17.217Z,6.60
2018-12-06T02:47:51.875Z,6.61
2018-12-06T02:48:26.693Z,6.56
2018-12-06T02:49:01.365Z,6.64
2018-12-06T02:49:36.254Z,6.58
2018-12-06T02:50:11.293Z,6.58
2018-12-06T02:50:45.909Z,6.51
2018-12-06T02:51:20.533Z,6.49
2018-12-06T02:51:55.480Z,6.58
2018-12-06T02:52:30.108Z,6.56
2018-12-06T02:53:04.665Z,6.57
2018-12-06T02:53:39.265Z,6.48
2018-12-06T02:54:13.856Z,6.39
2018-12-06T02:54:48.448Z,6.46
2018-12-06T02:55:23.720Z,6.40
2018-12-06T02:55:58.527Z,6.44
2018-12-06T02:56:33.197Z,6.44
2018-12-06T02:57:08.242Z,6.43
2018-12-06T02:57:43.110Z,6.38
2018-12-06T02:58:17.725Z,6.41
2018-12-06T02:58:52.372Z,6.43
2018-12-06T02:59:27.021Z,6.39
2018-12-06T03:00:01.641Z,6.37
2018-12-06T03:00:36.254Z,6.36
2018-12-06T03:01:10.915Z,6.51
2018-12-06T03:01:45.500Z,6.49
2018-12-06T03:02:20.085Z,6.43
2018-12-06T03:02:54.752Z,6.44
2018-12-06T03:03:29.518Z,6.49
2018-12-06T03:04:04.801Z,6.62
2018-12-06T03:04:39.363Z,6.71
2018-12-06T03:05:14.478Z,6.78
2018-12-06T03:05:49.082Z,6.76
2018-12-06T03:06:24.294Z,6.80
2018-12-06T03:06:58.852Z,6.69
2018-12-06T03:07:33.434Z,6.62
2018-12-06T03:08:07.977Z,6.58
2018-12-06T03:08:42.549Z,6.65
2018-12-06T03:09:17.108Z,6.63
2018-12-06T03:09:51.774Z,6.59
2018-12-06T03:10:26.495Z,6.68
2018-12-06T03:11:01.241Z,6.66
2018-12-06T03:11:35.812Z,6.64
2018-12-06T03:12:10.426Z,6.73
2018-12-06T03:12:45.006Z,6.66
2018-12-06T03:13:19.643Z,6.63
2018-12-06T03:13:54.415Z,6.62
2018-12-06T03:14:29.036Z,6.58
2018-12-06T03:15:04.550Z,6.56
2018-12-06T03:15:39.424Z,6.52
2018-12-06T03:16:14.234Z,6.52
2018-12-06T03:16:48.811Z,6.54
2018-12-06T03:17:23.712Z,6.74
2018-12-06T03:17:58.395Z,6.71
2018-12-06T03:18:33.147Z,6.64
2018-12-06T03:19:07.725Z,6.68
2018-12-06T03:19:42.389Z,6.71
2018-12-06T03:20:17.087Z,6.63
2018-12-06T03:20:51.663Z,6.52
2018-12-06T03:21:26.311Z,6.55
2018-12-06T03:22:00.941Z,6.51
2018-12-06T03:22:35.973Z,6.60
2018-12-06T03:23:10.562Z,6.72
2018-12-06T03:23:45.442Z,6.79
2018-12-06T03:24:20.118Z,6.92
2018-12-06T03:24:55.064Z,6.79
2018-12-06T03:25:29.809Z,6.66
2018-12-06T03:26:04.833Z,6.56
2018-12-06T03:26:39.410Z,6.52
2018-12-06T03:27:14.012Z,6.50
2018-12-06T03:27:48.593Z,6.57
2018-12-06T03:28:23.571Z,6.48
2018-12-06T03:28:58.203Z,6.43
2018-12-06T03:29:32.820Z,6.53
2018-12-06T03:30:08.341Z,6.46
2018-12-06T03:30:43.010Z,6.45
2018-12-06T03:31:17.651Z,6.46
2018-12-06T03:31:52.583Z,6.47
2018-12-06T03:32:27.599Z,6.44
2018-12-06T03:33:02.279Z,6.44
2018-12-06T03:33:37.211Z,6.50
2018-12-06T03:34:11.805Z,6.45
2018-12-06T03:34:46.444Z,6.56
2018-12-06T03:35:21.020Z,6.52
2018-12-06T03:35:55.694Z,6.54
2018-12-06T03:36:30.301Z,6.56
2018-12-06T03:37:04.994Z,6.49
2018-12-06T03:37:39.581Z,6.49
2018-12-06T03:38:14.149Z,6.46
2018-12-06T03:38:48.729Z,6.40
2018-12-06T03:39:23.632Z,6.37
2018-12-06T03:39:58.281Z,6.30
2018-12-06T03:40:32.897Z,6.31
2018-12-06T03:41:07.593Z,6.34
2018-12-06T03:41:42.168Z,6.32
2018-12-06T03:42:16.728Z,6.36
2018-12-06T03:42:51.355Z,6.41
2018-12-06T03:43:26.007Z,6.36
2018-12-06T03:44:00.760Z,6.32
2018-12-06T03:44:36.476Z,6.34
2018-12-06T03:45:11.120Z,6.34
2018-12-06T03:45:45.713Z,6.34
2018-12-06T03:46:20.381Z,6.40
2018-12-06T03:46:55.561Z,6.38
2018-12-06T03:47:30.187Z,6.39
2018-12-06T03:48:04.811Z,6.37
2018-12-06T03:48:39.428Z,6.38
2018-12-06T03:49:14.328Z,6.37
2018-12-06T03:49:48.890Z,6.38
2018-12-06T03:50:23.750Z,6.38
2018-12-06T03:50:58.438Z,6.39
2018-12-06T03:51:33.018Z,6.46
2018-12-06T03:52:07.740Z,6.43
2018-12-06T03:52:42.341Z,6.41
2018-12-06T03:53:17.025Z,6.43
2018-12-06T03:53:52.004Z,6.37
2018-12-06T03:54:26.637Z,6.37
2018-12-06T03:55:01.442Z,6.58
2018-12-06T03:55:36.096Z,6.51
2018-12-06T03:56:10.697Z,6.54
2018-12-06T03:56:45.369Z,6.49
2018-12-06T03:57:19.936Z,6.57
2018-12-06T03:57:54.785Z,6.54
2018-12-06T03:58:29.616Z,6.53
2018-12-06T03:59:04.304Z,6.56
2018-12-06T03:59:38.845Z,6.52
2018-12-06T04:00:14.328Z,6.58
2018-12-06T04:00:49.009Z,6.71
2018-12-06T04:01:23.740Z,6.82
2018-12-06T04:01:58.446Z,6.80
2018-12-06T04:02:33.103Z,6.88
2018-12-06T04:03:07.660Z,6.83
2018-12-06T04:03:42.372Z,6.81
2018-12-06T04:04:16.947Z,6.79
2018-12-06T04:04:51.896Z,6.73
2018-12-06T04:05:26.800Z,6.86
2018-12-06T04:06:01.370Z,6.85
2018-12-06T04:06:35.944Z,6.94
2018-12-06T04:07:10.571Z,7.03
2018-12-06T04:07:45.140Z,7.03
2018-12-06T04:08:19.780Z,7.03
2018-12-06T04:08:54.528Z,6.94
2018-12-06T04:09:29.274Z,6.87
2018-12-06T04:10:05.450Z,6.90
2018-12-06T04:10:40.087Z,6.91
2018-12-06T04:11:14.677Z,6.91
2018-12-06T04:11:49.270Z,6.89
2018-12-06T04:12:24.027Z,6.91
2018-12-06T04:12:58.616Z,6.95
2018-12-06T04:13:33.211Z,6.94
2018-12-06T04:14:08.262Z,6.95
2018-12-06T04:14:43.000Z,6.99
2018-12-06T04:15:18.108Z,7.03
2018-12-06T04:15:52.781Z,7.18
2018-12-06T04:16:27.732Z,7.12
2018-12-06T04:17:02.995Z,7.17
2018-12-06T04:17:37.628Z,7.20
2018-12-06T04:18:12.215Z,7.19
2018-12-06T04:18:46.889Z,7.16
2018-12-06T04:19:21.484Z,7.13
2018-12-06T04:19:56.109Z,7.09
2018-12-06T04:20:30.913Z,7.09
2018-12-06T04:21:05.526Z,7.09
2018-12-06T04:21:40.573Z,7.09
2018-12-06T04:22:15.271Z,7.11
2018-12-06T04:22:49.906Z,7.09
2018-12-06T04:23:24.658Z,7.13
2018-12-06T04:23:59.388Z,7.14
2018-12-06T04:24:34.091Z,7.16
2018-12-06T04:25:08.773Z,7.15
2018-12-06T04:25:43.520Z,7.16
2018-12-06T04:26:18.154Z,7.21
2018-12-06T04:26:52.786Z,7.22
2018-12-06T04:27:27.577Z,7.23
2018-12-06T04:28:02.196Z,7.26
2018-12-06T04:28:37.079Z,7.22
2018-12-06T04:29:11.665Z,7.28
2018-12-06T04:29:46.270Z,7.26
2018-12-06T04:30:20.876Z,7.26
2018-12-06T04:30:55.488Z,7.39
2018-12-06T04:31:30.215Z,7.49
2018-12-06T04:32:04.834Z,7.53
2018-12-06T04:32:39.472Z,7.48
2018-12-06T04:33:14.435Z,7.41
2018-12-06T04:33:49.113Z,7.42
2018-12-06T04:34:23.911Z,7.39
2018-12-06T04:34:58.531Z,7.40
2018-12-06T04:35:33.144Z,7.39
2018-12-06T04:36:07.778Z,7.36
2018-12-06T04:36:42.381Z,7.38
2018-12-06T04:37:17.002Z,7.40
2018-12-06T04:37:51.814Z,7.50
2018-12-06T04:38:26.533Z,7.44
2018-12-06T04:39:01.170Z,7.44
2018-12-06T04:39:35.761Z,7.44
2018-12-06T04:40:10.350Z,7.43
2018-12-06T04:40:44.986Z,7.42
2018-12-06T04:41:19.637Z,7.38
2018-12-06T04:41:54.617Z,7.41
2018-12-06T04:42:29.341Z,7.41
2018-12-06T04:43:03.940Z,7.38
2018-12-06T04:43:38.558Z,7.43
2018-12-06T04:44:13.170Z,7.47
2018-12-06T04:44:47.821Z,7.49
2018-12-06T04:45:22.437Z,7.45
2018-12-06T04:45:57.485Z,7.68
2018-12-06T04:46:32.120Z,7.63
2018-12-06T04:47:06.698Z,7.63
2018-12-06T04:47:41.861Z,7.66
2018-12-06T04:48:21.946Z,7.61
2018-12-06T04:48:53.103Z,7.56
2018-12-06T04:49:27.782Z,7.48
2018-12-06T04:50:02.613Z,7.51
2018-12-06T04:50:37.232Z,7.49
2018-12-06T04:51:12.080Z,7.51
2018-12-06T04:51:46.790Z,7.50
2018-12-06T04:52:21.413Z,7.47
2018-12-06T04:52:56.134Z,7.48
2018-12-06T04:53:30.797Z,7.50
2018-12-06T04:54:05.420Z,7.62
2018-12-06T04:54:46.414Z,7.63
2018-12-06T04:55:21.115Z,7.58
2018-12-06T04:55:55.870Z,7.63
2018-12-06T04:56:30.681Z,7.71
2018-12-06T04:57:05.362Z,7.71
2018-12-06T04:57:39.969Z,7.70
2018-12-06T04:58:14.578Z,7.76
2018-12-06T04:58:49.191Z,7.74
2018-12-06T04:59:23.833Z,7.65
2018-12-06T04:59:58.969Z,7.63
2018-12-06T05:00:34.070Z,7.66
2018-12-06T05:01:08.641Z,7.67
2018-12-06T05:01:43.305Z,7.71
2018-12-06T05:02:17.897Z,7.66
2018-12-06T05:02:52.985Z,7.72
2018-12-06T05:03:27.688Z,7.68
2018-12-06T05:04:02.300Z,7.66
2018-12-06T05:04:37.133Z,7.66
2018-12-06T05:05:11.790Z,7.67
2018-12-06T05:05:46.407Z,7.77
2018-12-06T05:06:21.923Z,7.69
2018-12-06T05:06:56.588Z,7.70
2018-12-06T05:07:31.351Z,7.71
2018-12-06T05:08:06.202Z,7.70
2018-12-06T05:08:40.805Z,7.71
2018-12-06T05:09:15.416Z,7.71
2018-12-06T05:09:49.992Z,7.67
2018-12-06T05:10:24.670Z,7.72
2018-12-06T05:10:59.537Z,7.70
2018-12-06T05:11:34.175Z,7.72
2018-12-06T05:12:08.726Z,7.73
2018-12-06T05:12:43.307Z,7.77
2018-12-06T05:13:17.961Z,7.90
2018-12-06T05:13:52.681Z,7.96
2018-12-06T05:14:27.366Z,7.90
2018-12-06T05:15:02.053Z,7.81
2018-12-06T05:15:36.699Z,7.85
2018-12-06T05:16:11.284Z,7.89
2018-12-06T05:16:45.910Z,7.96
2018-12-06T05:17:20.496Z,7.82
2018-12-06T05:17:55.282Z,7.90
2018-12-06T05:18:30.503Z,7.91
2018-12-06T05:19:05.206Z,7.97
2018-12-06T05:19:39.798Z,7.89
2018-12-06T05:20:14.416Z,7.93
2018-12-06T05:20:49.046Z,7.96
2018-12-06T05:21:24.206Z,7.93
2018-12-06T05:21:58.929Z,7.90
2018-12-06T05:22:33.512Z,7.88
2018-12-06T05:23:08.106Z,7.84
2018-12-06T05:23:42.759Z,7.76
2018-12-06T05:24:17.372Z,7.69
2018-12-06T05:24:52.046Z,7.74
2018-12-06T05:25:26.856Z,7.73
2018-12-06T05:26:01.527Z,7.80
2018-12-06T05:26:36.227Z,7.84
2018-12-06T05:27:10.928Z,7.84
2018-12-06T05:27:45.584Z,7.92
2018-12-06T05:28:20.276Z,7.84
2018-12-06T05:28:54.980Z,7.93
2018-12-06T05:29:29.644Z,7.87
2018-12-06T05:30:05.771Z,7.86
2018-12-06T05:30:40.457Z,7.82
2018-12-06T05:31:15.196Z,7.80
2018-12-06T05:31:49.833Z,7.86
2018-12-06T05:32:24.628Z,7.88
2018-12-06T05:32:59.364Z,7.88
2018-12-06T05:33:34.061Z,7.85
2018-12-06T05:34:09.147Z,7.89
2018-12-06T05:34:44.109Z,7.86
2018-12-06T05:35:18.714Z,7.83
2018-12-06T05:35:53.513Z,7.84
2018-12-06T05:36:28.524Z,7.85
2018-12-06T05:37:03.175Z,7.85
2018-12-06T05:37:37.918Z,7.84
2018-12-06T05:38:12.634Z,7.93
2018-12-06T05:38:47.799Z,7.93
2018-12-06T05:39:22.864Z,7.89
2018-12-06T05:39:57.517Z,7.90
2018-12-06T05:40:32.194Z,7.95
2018-12-06T05:41:06.785Z,7.97
2018-12-06T05:41:41.429Z,7.91
2018-12-06T05:42:16.079Z,7.91
2018-12-06T05:42:50.716Z,7.82
2018-12-06T05:43:25.439Z,7.79
2018-12-06T05:44:00.233Z,7.80
2018-12-06T05:44:34.900Z,7.85
2018-12-06T05:45:09.528Z,7.87
2018-12-06T05:45:46.236Z,7.78
2018-12-06T05:46:20.897Z,7.80
2018-12-06T05:46:55.665Z,7.81
2018-12-06T05:47:31.585Z,7.81
2018-12-06T05:48:06.253Z,7.84
2018-12-06T05:48:40.866Z,7.84
2018-12-06T05:49:15.635Z,7.81
2018-12-06T05:49:50.232Z,7.82
2018-12-06T05:50:24.900Z,7.88
2018-12-06T05:50:59.618Z,7.88
2018-12-06T05:51:34.298Z,7.86
2018-12-06T05:52:08.942Z,7.78
2018-12-06T05:52:43.511Z,7.78
2018-12-06T05:53:18.209Z,7.76
2018-12-06T05:53:52.962Z,7.74
2018-12-06T05:54:27.641Z,7.76
2018-12-06T05:55:02.855Z,7.72
2018-12-06T05:55:37.499Z,7.76
2018-12-06T05:56:12.169Z,7.68
2018-12-06T05:56:46.803Z,7.67
2018-12-06T05:57:21.527Z,7.65
2018-12-06T05:57:56.282Z,7.59
2018-12-06T05:58:31.017Z,7.70
2018-12-06T05:59:05.750Z,7.75
2018-12-06T05:59:40.392Z,7.71
2018-12-06T06:00:15.034Z,7.76
2018-12-06T06:00:49.668Z,7.75
2018-12-06T06:01:24.521Z,7.85
2018-12-06T06:01:59.375Z,7.72
2018-12-06T06:02:34.019Z,7.73
2018-12-06T06:03:08.716Z,7.73
2018-12-06T06:03:43.577Z,7.70
2018-12-06T06:04:18.485Z,7.72
2018-12-06T06:04:53.198Z,7.66
2018-12-06T06:05:28.033Z,7.77
2018-12-06T06:06:02.694Z,7.73
2018-12-06T06:06:37.290Z,7.75
2018-12-06T06:07:12.121Z,7.73
2018-12-06T06:07:46.795Z,7.70
2018-12-06T06:08:21.464Z,7.72
2018-12-06T06:08:56.296Z,7.73
2018-12-06T06:09:31.536Z,7.67
2018-12-06T06:10:07.319Z,7.66
2018-12-06T06:10:41.990Z,7.80
2018-12-06T06:11:16.674Z,7.80
2018-12-06T06:11:51.310Z,7.72
2018-12-06T06:12:26.294Z,7.77
2018-12-06T06:13:01.050Z,7.77
2018-12-06T06:13:36.654Z,7.70
2018-12-06T06:14:11.242Z,7.66
2018-12-06T06:14:45.848Z,7.67
2018-12-06T06:15:21.017Z,7.72
2018-12-06T06:15:56.181Z,7.82
2018-12-06T06:16:32.181Z,7.77
2018-12-06T06:17:07.181Z,7.80
2018-12-06T06:17:41.768Z,7.74
2018-12-06T06:18:16.445Z,7.74
2018-12-06T06:18:51.354Z,7.74
2018-12-06T06:19:26.022Z,7.74
2018-12-06T06:20:00.718Z,7.67
2018-12-06T06:20:35.337Z,7.69
2018-12-06T06:21:10.433Z,7.63
2018-12-06T06:21:45.057Z,7.61
2018-12-06T06:22:21.522Z,7.64
2018-12-06T06:22:56.345Z,7.68
2018-12-06T06:23:31.092Z,7.66
2018-12-06T06:24:05.772Z,7.67
2018-12-06T06:24:40.384Z,7.65
2018-12-06T06:25:14.975Z,7.65
2018-12-06T06:25:49.616Z,7.66
2018-12-06T06:26:24.395Z,7.66
2018-12-06T06:26:59.212Z,7.69
2018-12-06T06:27:33.901Z,7.73
2018-12-06T06:28:09.186Z,7.69
2018-12-06T06:28:43.782Z,7.66
2018-12-06T06:29:18.430Z,7.68
2018-12-06T06:29:53.134Z,7.73
2018-12-06T06:30:28.040Z,7.68
2018-12-06T06:31:02.833Z,7.73
2018-12-06T06:31:37.456Z,7.71
2018-12-06T06:32:12.127Z,7.69
2018-12-06T06:32:46.777Z,7.71
2018-12-06T06:33:21.414Z,7.67
2018-12-06T06:33:56.255Z,7.73
2018-12-06T06:34:31.129Z,7.70
2018-12-06T06:35:07.125Z,7.82
2018-12-06T06:35:41.999Z,7.76
2018-12-06T06:36:16.614Z,7.78
2018-12-06T06:36:51.200Z,7.71
2018-12-06T06:37:25.972Z,7.77
2018-12-06T06:38:00.658Z,7.85
2018-12-06T06:38:35.261Z,7.83
2018-12-06T06:39:10.281Z,7.75
2018-12-06T06:39:45.292Z,7.76
2018-12-06T06:40:19.893Z,7.69
2018-12-06T06:40:54.594Z,7.71
2018-12-06T06:41:29.391Z,7.75
2018-12-06T06:42:04.049Z,7.81
2018-12-06T06:42:38.926Z,7.84
2018-12-06T06:43:13.527Z,7.85
2018-12-06T06:43:48.137Z,7.80
2018-12-06T06:44:22.867Z,7.87
2018-12-06T06:44:57.728Z,7.91
2018-12-06T06:45:32.596Z,7.80
2018-12-06T06:46:07.194Z,7.76
2018-12-06T06:46:41.887Z,7.72
2018-12-06T06:47:16.494Z,7.72
2018-12-06T06:47:51.290Z,7.77
2018-12-06T06:48:26.139Z,7.82
2018-12-06T06:49:00.915Z,7.79
2018-12-06T06:49:35.492Z,7.79
2018-12-06T06:50:10.214Z,7.76
2018-12-06T06:50:44.774Z,7.79
2018-12-06T06:51:19.362Z,7.84
2018-12-06T06:51:54.128Z,7.84
2018-12-06T06:52:28.822Z,7.95
2018-12-06T06:53:03.485Z,7.93
2018-12-06T06:53:38.194Z,7.94
2018-12-06T06:54:13.245Z,8.05
2018-12-06T06:54:47.954Z,7.95
2018-12-06T06:55:23.245Z,7.92
2018-12-06T06:55:58.098Z,7.92
2018-12-06T06:56:32.896Z,7.94
2018-12-06T06:57:07.512Z,7.92
2018-12-06T06:57:42.272Z,7.91
2018-12-06T06:58:16.853Z,7.90
2018-12-06T06:58:51.458Z,7.93
2018-12-06T06:59:26.481Z,7.95
2018-12-06T07:00:01.489Z,7.95
2018-12-06T07:00:36.127Z,7.98
2018-12-06T07:01:10.757Z,7.91
2018-12-06T07:01:45.878Z,7.94
2018-12-06T07:02:20.923Z,7.89
2018-12-06T07:02:55.721Z,7.92
2018-12-06T07:03:30.696Z,7.91
2018-12-06T07:04:08.283Z,7.96
2018-12-06T07:04:43.025Z,8.04
2018-12-06T07:05:17.616Z,8.05
2018-12-06T07:05:52.322Z,8.03
2018-12-06T07:06:26.993Z,8.01
2018-12-06T07:07:02.218Z,8.05
2018-12-06T07:07:36.808Z,7.95
2018-12-06T07:08:11.458Z,7.84
2018-12-06T07:08:46.245Z,7.92
2018-12-06T07:09:20.919Z,7.87
2018-12-06T07:09:56.524Z,7.88
2018-12-06T07:10:32.243Z,7.81
2018-12-06T07:11:06.846Z,7.84
2018-12-06T07:11:41.499Z,7.89
2018-12-06T07:12:16.123Z,7.91
2018-12-06T07:12:50.724Z,7.89
2018-12-06T07:13:25.522Z,7.92
2018-12-06T07:14:00.269Z,7.98
2018-12-06T07:14:34.861Z,8.04
2018-12-06T07:15:10.146Z,7.98
2018-12-06T07:15:44.794Z,7.98
2018-12-06T07:16:19.409Z,8.03
2018-12-06T07:16:54.345Z,8.05
2018-12-06T07:17:29.002Z,7.98
2018-12-06T07:18:03.708Z,7.97
2018-12-06T07:18:38.386Z,7.96
2018-12-06T07:19:13.022Z,7.93
2018-12-06T07:19:47.689Z,7.95
2018-12-06T07:20:22.320Z,7.96
2018-12-06T07:20:56.969Z,8.05
2018-12-06T07:21:31.578Z,8.05
2018-12-06T07:22:06.273Z,8.06
2018-12-06T07:22:40.873Z,8.03
2018-12-06T07:23:15.494Z,8.07
2018-12-06T07:23:50.610Z,7.98
2018-12-06T07:24:25.392Z,7.91
2018-12-06T07:25:00.054Z,7.93
2018-12-06T07:25:34.727Z,7.90
2018-12-06T07:26:09.590Z,7.91
2018-12-06T07:26:44.194Z,7.91
2018-12-06T07:27:19.323Z,7.93
2018-12-06T07:27:54.097Z,7.89
2018-12-06T07:28:28.854Z,7.87
2018-12-06T07:29:03.976Z,7.92
2018-12-06T07:29:38.590Z,7.95
2018-12-06T07:30:14.237Z,7.92
2018-12-06T07:30:49.001Z,8.01
2018-12-06T07:31:24.263Z,8.02
2018-12-06T07:31:58.967Z,8.05
2018-12-06T07:32:33.626Z,8.01
2018-12-06T07:33:08.337Z,7.98
2018-12-06T07:33:42.945Z,8.01
2018-12-06T07:34:17.577Z,7.92
2018-12-06T07:34:52.217Z,7.92
2018-12-06T07:35:26.949Z,8.00
2018-12-06T07:36:01.589Z,7.97
2018-12-06T07:36:36.224Z,7.92
2018-12-06T07:37:10.885Z,7.96
2018-12-06T07:37:45.581Z,7.95
2018-12-06T07:38:20.516Z,7.98
2018-12-06T07:38:55.229Z,8.04
2018-12-06T07:39:29.943Z,8.00
2018-12-06T07:40:06.064Z,8.07
2018-12-06T07:40:40.659Z,8.08
2018-12-06T07:41:15.320Z,8.13
2018-12-06T07:41:50.278Z,8.13
2018-12-06T07:42:24.893Z,8.09
2018-12-06T07:42:59.617Z,8.16
2018-12-06T07:43:34.777Z,8.08
2018-12-06T07:44:09.487Z,8.09